Time;durP1;ratioP1;P1;durP2;ratioP2;P2;SDS_P1;SDS_P2;PMS_P1;PMS_P2;Temp;Humidity;BMP_temperature;BMP_pressure;BME280_temperature;BME280_humidity;BME280_pressure;Samples;Min_cycle;Max_cycle;Signal;HPM_P1;HPM_P2
2023/05/22 00:02:23;;;;;;;8.85;7.38;;;22.00;64.10;;;;;;4985724;28;20086;-67
2023/05/22 00:04:49;;;;;;;9.57;7.25;;;22.10;64.20;;;;;;4986265;28;20026;-67
2023/05/22 00:07:15;;;;;;;8.32;6.85;;;22.00;64.10;;;;;;4985603;28;20038;-67
2023/05/22 00:09:40;;;;;;;10.45;7.43;;;22.10;64.20;;;;;;4981403;28;20062;-67
2023/05/22 00:12:06;;;;;;;7.90;6.60;;;22.00;64.10;;;;;;4984660;28;20036;-67
2023/05/22 00:14:32;;;;;;;9.32;7.75;;;22.00;64.10;;;;;;4977532;28;20510;-67
2023/05/22 00:16:58;;;;;;;8.95;7.65;;;22.00;64.10;;;;;;4983669;28;20138;-67
2023/05/22 00:19:24;;;;;;;10.45;7.20;;;22.00;64.10;;;;;;4980189;28;20109;-67
2023/05/22 00:21:50;;;;;;;8.90;7.20;;;22.00;64.10;;;;;;4981117;28;20485;-67
2023/05/22 00:24:15;;;;;;;10.27;7.32;;;22.00;64.00;;;;;;4983429;28;20034;-67
2023/05/22 00:26:41;;;;;;;8.18;7.00;;;22.00;64.10;;;;;;4982237;28;20038;-64
2023/05/22 00:29:06;;;;;;;7.85;6.93;;;22.10;64.10;;;;;;4984187;28;20036;-67
2023/05/22 00:31:32;;;;;;;8.50;6.82;;;22.00;64.00;;;;;;4983463;28;20104;-67
2023/05/22 00:33:58;;;;;;;8.05;7.25;;;22.00;64.10;;;;;;4984758;28;20042;-67
2023/05/22 00:36:23;;;;;;;8.82;6.65;;;22.00;64.00;;;;;;4983865;28;20035;-67
2023/05/22 00:38:49;;;;;;;7.50;6.68;;;22.00;64.10;;;;;;4982181;28;20034;-67
2023/05/22 00:41:15;;;;;;;8.93;7.28;;;22.10;64.10;;;;;;4982670;28;20038;-66
2023/05/22 00:43:40;;;;;;;7.68;6.90;;;22.10;64.20;;;;;;4979703;28;20030;-67
2023/05/22 00:46:09;;;;;;;7.93;7.13;;;22.00;64.10;;;;;;4980370;28;20023;-67
2023/05/22 00:48:35;;;;;;;8.10;7.30;;;22.00;64.40;;;;;;4977646;28;20045;-67
2023/05/22 00:51:01;;;;;;;11.48;7.20;;;22.00;64.10;;;;;;4980575;28;20026;-68
2023/05/22 00:53:28;;;;;;;8.70;6.95;;;22.00;64.00;;;;;;4985462;28;20491;-67
2023/05/22 00:55:54;;;;;;;7.13;6.38;;;22.00;63.90;;;;;;4981502;28;20027;-68
2023/05/22 00:58:20;;;;;;;7.40;6.40;;;22.10;64.10;;;;;;4984497;28;20490;-67
2023/05/22 01:00:46;;;;;;;8.30;6.82;;;22.10;64.00;;;;;;4982732;28;20525;-65
2023/05/22 01:03:13;;;;;;;7.65;6.65;;;22.00;64.00;;;;;;4984981;28;20046;-67
2023/05/22 01:05:39;;;;;;;9.52;7.07;;;22.00;64.10;;;;;;4983072;28;20484;-67
2023/05/22 01:08:06;;;;;;;8.05;6.97;;;22.00;64.00;;;;;;4983961;28;20051;-67
2023/05/22 01:10:33;;;;;;;7.70;6.80;;;22.00;63.90;;;;;;4977140;28;20461;-67
2023/05/22 01:13:11;;;;;;;8.60;7.70;;;22.00;64.00;;;;;;4978387;28;20038;-67
2023/05/22 01:15:51;;;;;;;10.77;6.40;;;22.00;64.00;;;;;;4979771;28;20042;-67
2023/05/22 01:18:41;;;;;;;8.88;6.88;;;22.00;64.00;;;;;;4980121;28;20102;-66
2023/05/22 01:21:28;;;;;;;8.50;6.63;;;22.00;64.00;;;;;;4975604;28;20034;-65
2023/05/22 01:24:18;;;;;;;7.53;6.55;;;22.00;64.00;;;;;;4980285;28;20030;-67
2023/05/22 01:27:02;;;;;;;7.35;6.65;;;22.00;64.10;;;;;;4983537;28;20469;-65
2023/05/22 01:29:36;;;;;;;7.38;6.05;;;22.00;64.00;;;;;;4981755;28;20039;-66
2023/05/22 01:32:04;;;;;;;7.03;6.20;;;22.00;64.00;;;;;;4984159;28;20406;-67
2023/05/22 01:34:33;;;;;;;6.82;6.13;;;22.00;63.90;;;;;;4981706;28;20030;-67
2023/05/22 01:36:59;;;;;;;7.63;6.57;;;22.00;64.00;;;;;;4982856;28;20034;-67
2023/05/22 01:39:27;;;;;;;6.88;6.18;;;22.00;64.10;;;;;;4981289;28;20034;-65
2023/05/22 01:41:52;;;;;;;7.50;6.72;;;22.00;63.90;;;;;;4980133;28;20529;-66
2023/05/22 01:44:18;;;;;;;7.38;6.40;;;22.00;63.90;;;;;;4976117;28;20125;-67
2023/05/22 01:46:43;;;;;;;7.07;5.90;;;22.00;64.00;;;;;;4979389;28;20030;-67
2023/05/22 01:49:09;;;;;;;6.90;6.20;;;22.00;63.90;;;;;;4984944;28;20521;-66
2023/05/22 01:51:37;;;;;;;6.88;6.18;;;22.00;64.00;;;;;;4982669;28;20113;-67
2023/05/22 01:54:13;;;;;;;7.57;6.78;;;22.00;64.10;;;;;;4986665;28;20086;-68
2023/05/22 01:56:47;;;;;;;7.20;6.10;;;22.00;63.90;;;;;;4986826;28;20061;-67
2023/05/22 01:59:29;;;;;;;7.97;6.83;;;22.00;63.90;;;;;;4992504;28;20037;-64
2023/05/22 02:01:59;;;;;;;7.15;6.18;;;22.00;63.90;;;;;;4985996;28;20034;-67
2023/05/22 02:04:26;;;;;;;6.63;5.93;;;22.00;64.00;;;;;;4986802;28;20490;-66
2023/05/22 02:06:52;;;;;;;7.30;6.45;;;22.00;63.90;;;;;;5001537;28;20034;-67
2023/05/22 02:09:20;;;;;;;6.57;5.90;;;22.00;64.00;;;;;;4979293;28;20038;-67
2023/05/22 02:11:46;;;;;;;6.40;5.70;;;22.00;63.90;;;;;;4985859;28;20441;-67
2023/05/22 02:14:12;;;;;;;5.93;5.43;;;22.00;64.00;;;;;;4981648;28;20034;-67
2023/05/22 02:16:38;;;;;;;6.95;5.75;;;22.00;63.90;;;;;;4982318;28;20042;-67
2023/05/22 02:19:06;;;;;;;6.32;5.38;;;22.00;64.00;;;;;;4986500;28;20031;-67
2023/05/22 02:21:33;;;;;;;7.43;6.53;;;22.00;63.90;;;;;;4985258;28;20417;-67
2023/05/22 02:23:59;;;;;;;7.88;5.97;;;22.00;64.00;;;;;;4986033;28;20448;-67
2023/05/22 02:26:25;;;;;;;6.40;5.80;;;22.00;64.00;;;;;;4986516;28;20034;-67
2023/05/22 02:28:50;;;;;;;7.00;6.13;;;22.00;63.90;;;;;;4985962;28;20118;-64
2023/05/22 02:31:17;;;;;;;6.40;5.75;;;22.00;63.90;;;;;;4985265;28;20105;-67
2023/05/22 02:33:42;;;;;;;7.13;6.22;;;22.00;63.90;;;;;;4986097;28;20077;-67
2023/05/22 02:36:09;;;;;;;7.18;6.38;;;22.00;63.90;;;;;;4987248;28;20351;-67
2023/05/22 02:38:35;;;;;;;6.93;5.88;;;22.00;63.90;;;;;;4983831;28;20031;-67
2023/05/22 02:41:01;;;;;;;6.38;5.78;;;22.00;63.90;;;;;;4979602;28;20362;-66
2023/05/22 02:43:26;;;;;;;7.07;6.38;;;22.00;63.90;;;;;;4983627;28;20058;-67
2023/05/22 02:45:52;;;;;;;6.30;5.70;;;22.00;63.90;;;;;;4980617;28;20104;-67
2023/05/22 02:48:18;;;;;;;6.68;6.07;;;22.00;63.90;;;;;;4981174;28;20382;-67
2023/05/22 02:50:43;;;;;;;7.53;6.50;;;21.90;63.90;;;;;;4982665;28;20034;-67
2023/05/22 02:53:09;;;;;;;6.53;5.93;;;22.00;63.90;;;;;;4985802;28;20089;-67
2023/05/22 02:55:34;;;;;;;6.60;5.82;;;22.00;63.90;;;;;;4986088;28;20042;-67
2023/05/22 02:58:01;;;;;;;6.75;5.75;;;21.90;63.80;;;;;;4986012;28;20031;-68
2023/05/22 03:00:26;;;;;;;6.50;5.65;;;22.00;63.90;;;;;;4986130;28;20038;-67
2023/05/22 03:02:52;;;;;;;6.72;6.00;;;22.00;63.90;;;;;;4986292;28;20085;-67
2023/05/22 03:05:17;;;;;;;6.13;5.53;;;22.00;63.90;;;;;;4986077;28;20026;-65
2023/05/22 03:07:43;;;;;;;6.57;5.80;;;21.90;63.80;;;;;;4985386;28;20473;-67
2023/05/22 03:10:09;;;;;;;6.40;5.90;;;22.00;63.80;;;;;;4982979;28;20429;-67
2023/05/22 03:12:34;;;;;;;6.43;5.80;;;21.90;63.80;;;;;;4978543;28;20125;-65
2023/05/22 03:15:00;;;;;;;7.10;6.07;;;21.90;63.80;;;;;;4982433;28;20031;-67
2023/05/22 03:17:25;;;;;;;7.07;5.55;;;21.90;63.80;;;;;;4985557;28;20069;-67
2023/05/22 03:19:51;;;;;;;6.50;5.90;;;21.90;63.80;;;;;;4987640;28;20030;-66
2023/05/22 03:22:17;;;;;;;6.90;6.20;;;21.90;63.80;;;;;;4986682;28;20050;-67
2023/05/22 03:24:43;;;;;;;6.32;5.72;;;22.00;63.90;;;;;;4986213;28;20062;-67
2023/05/22 03:27:08;;;;;;;7.07;5.25;;;22.00;63.80;;;;;;4986598;28;20064;-67
2023/05/22 03:29:35;;;;;;;6.72;6.03;;;21.90;63.80;;;;;;4984375;28;20642;-66
2023/05/22 03:32:02;;;;;;;6.90;5.97;;;21.90;63.70;;;;;;4987316;28;20034;-67
2023/05/22 03:34:28;;;;;;;6.18;5.57;;;21.90;63.80;;;;;;4983851;28;20512;-66
2023/05/22 03:36:56;;;;;;;5.72;5.22;;;21.90;64.40;;;;;;4981755;28;20031;-67
2023/05/22 03:39:22;;;;;;;6.57;5.97;;;22.00;63.80;;;;;;4980889;28;20100;-67
2023/05/22 03:41:47;;;;;;;6.57;5.95;;;22.00;63.70;;;;;;4976308;28;20406;-67
2023/05/22 03:44:13;;;;;;;6.72;6.13;;;21.90;63.70;;;;;;4976291;28;20494;-67
2023/05/22 03:46:38;;;;;;;6.78;6.10;;;22.00;63.80;;;;;;4979926;28;20034;-67
2023/05/22 03:49:04;;;;;;;5.85;5.35;;;21.90;63.70;;;;;;4982528;28;20031;-67
2023/05/22 03:51:30;;;;;;;6.35;5.85;;;21.90;63.70;;;;;;4982279;28;20054;-66
2023/05/22 03:53:56;;;;;;;5.50;4.97;;;21.90;63.70;;;;;;4984850;28;20378;-68
2023/05/22 03:56:21;;;;;;;6.18;4.93;;;21.90;63.70;;;;;;4984358;28;20042;-68
2023/05/22 03:58:47;;;;;;;7.72;5.78;;;22.00;63.60;;;;;;4984409;28;20517;-64
2023/05/22 04:01:12;;;;;;;7.05;6.35;;;22.00;63.70;;;;;;4983638;28;20038;-68
2023/05/22 04:03:38;;;;;;;6.35;5.80;;;22.00;63.70;;;;;;4982544;28;20445;-67
2023/05/22 04:06:04;;;;;;;6.47;5.28;;;22.00;63.80;;;;;;4984439;28;20034;-67
2023/05/22 04:08:30;;;;;;;7.13;5.45;;;21.90;63.60;;;;;;4984520;28;20030;-67
2023/05/22 04:10:55;;;;;;;6.50;5.53;;;21.90;63.60;;;;;;4979179;28;20125;-65
2023/05/22 04:13:21;;;;;;;6.57;5.97;;;22.00;63.60;;;;;;4978550;28;20042;-67
2023/05/22 04:15:48;;;;;;;5.65;5.05;;;22.00;63.60;;;;;;4976223;28;20038;-67
2023/05/22 04:18:14;;;;;;;5.35;4.85;;;21.90;63.60;;;;;;4985857;28;20122;-67
2023/05/22 04:20:39;;;;;;;10.68;6.15;;;21.90;63.60;;;;;;4982014;28;20038;-67
2023/05/22 04:23:06;;;;;;;5.75;5.22;;;22.00;63.60;;;;;;4985256;28;20038;-67
2023/05/22 04:25:33;;;;;;;5.90;5.40;;;22.00;63.60;;;;;;4986283;28;20030;-67
2023/05/22 04:28:01;;;;;;;5.80;5.15;;;22.00;63.60;;;;;;4984683;28;20034;-68
2023/05/22 04:30:26;;;;;;;5.88;5.32;;;22.00;63.50;;;;;;4984671;28;20177;-64
2023/05/22 04:32:52;;;;;;;6.53;5.88;;;22.00;63.50;;;;;;4982602;28;20102;-67
2023/05/22 04:35:18;;;;;;;5.45;4.97;;;22.00;63.40;;;;;;4983252;28;20041;-66
2023/05/22 04:37:44;;;;;;;6.07;5.47;;;22.00;63.40;;;;;;4977843;28;20062;-65
2023/05/22 04:40:11;;;;;;;6.10;5.15;;;22.00;63.40;;;;;;4979190;28;20041;-67
2023/05/22 04:42:37;;;;;;;5.72;5.05;;;22.10;63.40;;;;;;4983195;28;20074;-63
2023/05/22 04:45:06;;;;;;;5.95;5.32;;;22.10;63.30;;;;;;4977575;28;20050;-66
2023/05/22 04:47:31;;;;;;;6.10;5.45;;;22.10;63.30;;;;;;4979799;28;20065;-66
2023/05/22 04:49:58;;;;;;;5.32;4.82;;;22.10;63.40;;;;;;4983716;28;20501;-64
2023/05/22 04:52:27;;;;;;;5.00;4.50;;;22.10;63.40;;;;;;4983884;28;20035;-67
2023/05/22 04:54:54;;;;;;;5.75;5.13;;;22.10;63.30;;;;;;4983164;28;20031;-66
2023/05/22 04:57:20;;;;;;;5.93;5.32;;;22.10;63.50;;;;;;4982395;28;20914;-66
2023/05/22 04:59:46;;;;;;;6.10;5.50;;;22.10;63.30;;;;;;4984040;28;20045;-66
2023/05/22 05:02:12;;;;;;;6.10;5.50;;;22.10;63.40;;;;;;4982584;28;20042;-65
2023/05/22 05:04:38;;;;;;;7.40;5.25;;;22.10;63.40;;;;;;4979332;28;20113;-66
2023/05/22 05:07:04;;;;;;;5.28;4.78;;;22.20;63.40;;;;;;4980150;28;20038;-67
2023/05/22 05:09:30;;;;;;;5.85;5.22;;;22.10;63.40;;;;;;4975284;28;20037;-64
2023/05/22 05:11:56;;;;;;;5.57;5.00;;;22.20;63.40;;;;;;4976791;28;20407;-65
2023/05/22 05:14:21;;;;;;;5.28;4.78;;;22.20;63.40;;;;;;4980139;28;20027;-65
2023/05/22 05:16:47;;;;;;;5.20;4.63;;;22.20;63.40;;;;;;4984102;28;20038;-62
2023/05/22 05:19:12;;;;;;;5.57;5.07;;;22.20;63.40;;;;;;4984308;28;20023;-64
2023/05/22 05:21:38;;;;;;;5.20;4.53;;;22.20;63.40;;;;;;4984289;28;20041;-62
2023/05/22 05:24:05;;;;;;;5.13;4.63;;;22.20;63.40;;;;;;4982015;28;20030;-64
2023/05/22 05:26:30;;;;;;;5.68;5.10;;;22.20;63.40;;;;;;4987549;28;20057;-65
2023/05/22 05:28:56;;;;;;;5.07;4.60;;;22.20;63.30;;;;;;4987172;28;20116;-63
2023/05/22 05:31:22;;;;;;;6.10;5.25;;;22.30;63.40;;;;;;4986530;28;20049;-62
2023/05/22 05:33:48;;;;;;;5.13;4.63;;;22.20;63.40;;;;;;4984855;28;20034;-64
2023/05/22 05:36:15;;;;;;;5.20;4.22;;;22.20;63.40;;;;;;4984082;28;20494;-66
2023/05/22 05:38:40;;;;;;;7.30;4.72;;;22.30;63.50;;;;;;4984567;28;20038;-63
2023/05/22 05:41:06;;;;;;;9.57;5.63;;;22.30;63.60;;;;;;4977711;28;20030;-64
2023/05/22 05:43:31;;;;;;;6.50;4.75;;;22.30;63.70;;;;;;4984465;28;20109;-67
2023/05/22 05:45:57;;;;;;;5.57;5.07;;;22.30;63.70;;;;;;4984841;28;20026;-64
2023/05/22 05:48:22;;;;;;;6.97;5.35;;;22.30;63.70;;;;;;4987675;28;20134;-64
2023/05/22 05:50:48;;;;;;;7.18;4.93;;;22.30;64.00;;;;;;4986886;28;20034;-64
2023/05/22 05:53:14;;;;;;;8.63;4.70;;;22.30;63.70;;;;;;4988066;28;20524;-64
2023/05/22 05:55:40;;;;;;;6.20;5.28;;;22.30;63.90;;;;;;4988408;28;20066;-66
2023/05/22 05:58:05;;;;;;;6.82;6.03;;;22.40;63.90;;;;;;4984841;28;20493;-67
2023/05/22 06:00:31;;;;;;;9.13;6.03;;;22.30;64.10;;;;;;4986146;28;20652;-68
2023/05/22 06:02:56;;;;;;;11.15;7.25;;;22.30;64.10;;;;;;4984079;28;20031;-66
2023/05/22 06:05:22;;;;;;;9.35;7.22;;;22.30;64.00;;;;;;4983377;28;20035;-68
2023/05/22 06:07:48;;;;;;;12.13;7.63;;;22.30;63.90;;;;;;4982659;28;20038;-70
2023/05/22 06:10:14;;;;;;;7.30;6.55;;;22.40;63.90;;;;;;4979614;28;20082;-68
2023/05/22 06:12:40;;;;;;;10.05;7.47;;;22.30;64.10;;;;;;4984508;28;20042;-67
2023/05/22 06:15:07;;;;;;;7.88;6.30;;;22.30;64.00;;;;;;4983438;28;20034;-68
2023/05/22 06:17:33;;;;;;;8.15;6.50;;;22.30;64.00;;;;;;4986303;28;20438;-68
2023/05/22 06:19:59;;;;;;;10.25;7.22;;;22.30;64.10;;;;;;4988650;28;20113;-66
2023/05/22 06:22:25;;;;;;;7.50;6.78;;;22.30;64.00;;;;;;4986159;28;20117;-68
2023/05/22 06:24:53;;;;;;;10.40;6.63;;;22.30;64.00;;;;;;4984588;28;20036;-67
2023/05/22 06:27:21;;;;;;;10.00;6.80;;;22.30;64.00;;;;;;4987589;28;20694;-67
2023/05/22 06:29:47;;;;;;;7.95;6.57;;;22.40;64.00;;;;;;4987445;28;20030;-66
2023/05/22 06:32:12;;;;;;;6.80;5.88;;;22.30;64.10;;;;;;4985948;28;20061;-67
2023/05/22 06:34:39;;;;;;;8.13;6.57;;;22.30;63.90;;;;;;4984670;28;20030;-67
2023/05/22 06:37:04;;;;;;;12.52;7.18;;;22.30;63.90;;;;;;4980837;28;20082;-68
2023/05/22 06:39:30;;;;;;;7.40;6.50;;;22.30;63.80;;;;;;4977439;28;20555;-65
2023/05/22 06:41:56;;;;;;;7.45;6.32;;;22.30;63.90;;;;;;4986893;28;20058;-69
2023/05/22 06:44:21;;;;;;;8.15;6.05;;;22.30;63.90;;;;;;4982672;28;20034;-65
2023/05/22 06:46:47;;;;;;;7.50;6.00;;;22.30;63.80;;;;;;4965999;28;20581;-67
2023/05/22 06:49:12;;;;;;;6.47;5.88;;;22.30;63.80;;;;;;4985879;28;20038;-66
2023/05/22 06:51:38;;;;;;;7.95;6.10;;;22.30;63.90;;;;;;4985652;28;20085;-67
2023/05/22 06:54:05;;;;;;;7.20;6.50;;;22.40;64.00;;;;;;4985931;28;20520;-67
2023/05/22 06:56:31;;;;;;;7.82;7.03;;;22.40;64.20;;;;;;4982952;28;20502;-66
2023/05/22 06:58:57;;;;;;;9.65;6.35;;;22.40;64.10;;;;;;4984993;28;20101;-67
2023/05/22 07:01:23;;;;;;;6.93;6.13;;;22.30;64.00;;;;;;4984836;28;20057;-66
2023/05/22 07:03:48;;;;;;;8.45;6.38;;;22.30;64.00;;;;;;4981404;28;20030;-68
2023/05/22 07:06:14;;;;;;;7.25;6.20;;;22.30;64.00;;;;;;4987265;28;20030;-66
2023/05/22 07:08:39;;;;;;;9.25;7.18;;;22.30;64.10;;;;;;4982616;28;20039;-67
2023/05/22 07:11:06;;;;;;;7.80;5.90;;;22.30;64.10;;;;;;4982315;28;20056;-66
2023/05/22 07:13:32;;;;;;;7.80;5.85;;;22.30;64.10;;;;;;4981010;28;20104;-67
2023/05/22 07:15:57;;;;;;;9.70;6.47;;;22.30;64.00;;;;;;4985404;28;20030;-67
2023/05/22 07:18:22;;;;;;;8.75;7.38;;;22.30;64.00;;;;;;4986125;28;20034;-65
2023/05/22 07:20:48;;;;;;;7.43;6.72;;;22.30;64.00;;;;;;4984988;28;20552;-66
2023/05/22 07:23:13;;;;;;;7.80;6.15;;;22.30;63.90;;;;;;4986647;28;20037;-65
2023/05/22 07:25:39;;;;;;;10.45;7.88;;;22.30;63.90;;;;;;4983802;28;20050;-67
2023/05/22 07:28:07;;;;;;;12.30;8.68;;;22.30;64.10;;;;;;4984935;28;20050;-67
2023/05/22 07:30:35;;;;;;;13.63;8.93;;;22.30;64.40;;;;;;4983793;28;20157;-67
2023/05/22 07:33:01;;;;;;;15.25;10.30;;;22.30;64.50;;;;;;4979076;28;20089;-65
2023/05/22 07:35:27;;;;;;;15.93;10.10;;;22.30;64.30;;;;;;4982017;28;20038;-66
2023/05/22 07:37:52;;;;;;;17.63;10.77;;;22.30;64.30;;;;;;4982289;28;20037;-64
2023/05/22 07:40:17;;;;;;;15.07;9.93;;;22.40;64.60;;;;;;4982064;28;20041;-65
2023/05/22 07:42:43;;;;;;;17.90;10.70;;;22.40;64.60;;;;;;4985052;28;20113;-64
2023/05/22 07:45:09;;;;;;;16.15;10.52;;;22.40;64.60;;;;;;4984480;28;20038;-65
2023/05/22 07:47:34;;;;;;;18.20;10.18;;;22.40;64.60;;;;;;4982838;28;20073;-64
2023/05/22 07:50:03;;;;;;;16.17;9.85;;;22.40;64.50;;;;;;4984232;28;20699;-65
2023/05/22 07:52:30;;;;;;;18.58;9.98;;;22.40;65.30;;;;;;4984836;28;20038;-65
2023/05/22 07:54:56;;;;;;;14.68;9.82;;;22.40;64.60;;;;;;4985774;28;20038;-65
2023/05/22 07:57:21;;;;;;;17.38;10.05;;;22.40;64.60;;;;;;4985571;28;20049;-64
2023/05/22 07:59:47;;;;;;;13.85;9.43;;;22.40;64.60;;;;;;4982702;28;20463;-65
2023/05/22 08:02:13;;;;;;;14.68;9.18;;;22.40;64.60;;;;;;4980603;28;20488;-64
2023/05/22 08:04:39;;;;;;;10.98;8.80;;;22.40;64.60;;;;;;4982389;28;20050;-65
2023/05/22 08:07:05;;;;;;;15.82;9.90;;;22.40;64.60;;;;;;4977839;28;20050;-65
2023/05/22 08:09:30;;;;;;;11.23;8.85;;;22.40;64.50;;;;;;4980861;28;20027;-65
2023/05/22 08:11:56;;;;;;;15.80;9.18;;;22.40;64.60;;;;;;4983631;28;20038;-65
2023/05/22 08:14:21;;;;;;;14.02;9.50;;;22.40;64.50;;;;;;4981587;28;20041;-65
2023/05/22 08:16:47;;;;;;;15.02;9.20;;;22.30;64.50;;;;;;4984910;28;20563;-65
2023/05/22 08:19:13;;;;;;;15.07;9.18;;;22.40;64.60;;;;;;4982840;28;20062;-65
2023/05/22 08:21:39;;;;;;;15.23;9.40;;;22.40;64.80;;;;;;4983787;28;20110;-65
2023/05/22 08:24:05;;;;;;;13.00;8.70;;;22.40;64.70;;;;;;4984585;28;20034;-65
2023/05/22 08:26:32;;;;;;;11.13;7.80;;;22.40;64.80;;;;;;4984548;28;20038;-65
2023/05/22 08:28:58;;;;;;;11.02;8.95;;;22.40;64.60;;;;;;4982656;28;20109;-66
2023/05/22 08:31:23;;;;;;;14.48;8.73;;;22.40;64.70;;;;;;4981910;28;20117;-65
2023/05/22 08:33:49;;;;;;;12.32;8.68;;;22.40;64.60;;;;;;4984479;28;20034;-66
2023/05/22 08:36:15;;;;;;;13.23;8.20;;;22.40;64.80;;;;;;4984661;28;20034;-65
2023/05/22 08:38:40;;;;;;;13.02;8.40;;;22.40;64.80;;;;;;4979232;28;20109;-65
2023/05/22 08:41:07;;;;;;;12.40;8.68;;;22.40;64.70;;;;;;4977661;28;20030;-65
2023/05/22 08:43:32;;;;;;;9.65;7.10;;;22.40;64.70;;;;;;4984172;28;20038;-65
2023/05/22 08:46:07;;;;;;;15.57;8.23;;;22.40;64.60;;;;;;4984246;28;20034;-65
2023/05/22 08:48:32;;;;;;;10.65;7.30;;;22.40;64.60;;;;;;4980942;28;20634;-65
2023/05/22 08:51:02;;;;;;;11.30;7.53;;;22.30;64.70;;;;;;4984025;28;20117;-65
2023/05/22 08:53:33;;;;;;;11.73;7.78;;;22.40;64.60;;;;;;4984624;28;20034;-65
2023/05/22 08:55:58;;;;;;;11.93;7.47;;;22.40;64.80;;;;;;4982684;28;20036;-65
2023/05/22 08:58:25;;;;;;;12.13;8.18;;;22.30;64.60;;;;;;4982894;28;20034;-65
2023/05/22 09:00:52;;;;;;;14.35;8.13;;;22.40;64.70;;;;;;4981126;28;20038;-65
2023/05/22 09:03:20;;;;;;;10.52;8.07;;;22.40;64.70;;;;;;4983845;28;20038;-65
2023/05/22 09:05:45;;;;;;;8.85;7.53;;;22.40;64.80;;;;;;4979748;28;20040;-63
2023/05/22 09:08:11;;;;;;;9.10;6.97;;;22.40;64.60;;;;;;4980748;28;20042;-65
2023/05/22 09:10:37;;;;;;;10.32;7.45;;;22.40;64.60;;;;;;4979843;28;20109;-65
2023/05/22 09:13:08;;;;;;;9.90;7.05;;;22.40;64.60;;;;;;4983747;28;20117;-65
2023/05/22 09:15:34;;;;;;;10.27;7.07;;;22.40;64.60;;;;;;4979989;28;20054;-65
2023/05/22 09:18:01;;;;;;;10.60;6.85;;;22.40;64.60;;;;;;4983722;28;20670;-62
2023/05/22 09:20:27;;;;;;;8.63;6.47;;;22.40;64.50;;;;;;4983564;28;20034;-65
2023/05/22 09:22:52;;;;;;;7.95;6.80;;;22.40;64.60;;;;;;4982906;28;20053;-63
2023/05/22 09:25:19;;;;;;;7.30;6.43;;;22.40;64.60;;;;;;4984658;28;20030;-65
2023/05/22 09:27:45;;;;;;;9.40;5.90;;;22.40;64.70;;;;;;4981297;28;20481;-65
2023/05/22 09:30:14;;;;;;;8.40;6.22;;;22.40;64.60;;;;;;4982256;28;20027;-64
2023/05/22 09:32:40;;;;;;;10.02;6.00;;;22.40;64.60;;;;;;4979043;28;20034;-65
2023/05/22 09:35:06;;;;;;;9.00;5.85;;;22.40;64.50;;;;;;4976468;28;20027;-65
2023/05/22 09:37:35;;;;;;;6.80;6.10;;;22.40;64.60;;;;;;4979425;28;20026;-65
2023/05/22 09:40:05;;;;;;;7.45;5.57;;;22.40;64.50;;;;;;4977073;28;20474;-65
2023/05/22 09:42:32;;;;;;;7.45;6.38;;;22.40;64.60;;;;;;4981890;28;20768;-65
2023/05/22 09:45:05;;;;;;;8.82;6.13;;;22.40;64.60;;;;;;4983096;28;20035;-65
2023/05/22 09:47:33;;;;;;;11.27;6.38;;;22.40;64.60;;;;;;4981100;28;20136;-65
2023/05/22 09:50:03;;;;;;;7.00;6.07;;;22.40;64.60;;;;;;4982765;28;20030;-63
2023/05/22 09:52:33;;;;;;;9.23;5.50;;;22.40;64.60;;;;;;4982888;28;20042;-65
2023/05/22 09:55:03;;;;;;;6.82;5.57;;;22.40;64.50;;;;;;4982476;28;20038;-63
2023/05/22 09:57:31;;;;;;;9.48;5.63;;;22.40;64.60;;;;;;4980342;28;20038;-64
2023/05/22 09:59:59;;;;;;;8.18;6.07;;;22.40;64.60;;;;;;4980825;28;20027;-70
2023/05/22 10:02:26;;;;;;;7.45;5.30;;;22.40;64.60;;;;;;4979258;28;20042;-64
2023/05/22 10:04:53;;;;;;;7.18;4.85;;;22.40;64.50;;;;;;4975419;28;20026;-65
2023/05/22 10:07:21;;;;;;;7.45;6.20;;;22.40;64.50;;;;;;4983124;28;20457;-63
2023/05/22 10:09:58;;;;;;;6.70;5.75;;;22.40;64.60;;;;;;4983116;28;20713;-62
2023/05/22 10:12:25;;;;;;;7.47;5.40;;;22.40;64.50;;;;;;4985840;28;20069;-63
2023/05/22 10:14:52;;;;;;;6.90;4.78;;;22.40;64.50;;;;;;4985399;28;20034;-65
2023/05/22 10:17:19;;;;;;;7.10;5.07;;;22.40;64.40;;;;;;4987197;28;20031;-65
2023/05/22 10:19:46;;;;;;;8.23;5.40;;;22.40;64.40;;;;;;4987511;28;20367;-63
2023/05/22 10:22:19;;;;;;;6.63;5.45;;;22.40;64.40;;;;;;4987016;28;20034;-65
2023/05/22 10:24:46;;;;;;;5.38;4.88;;;22.40;64.40;;;;;;4985009;28;20038;-65
2023/05/22 10:27:12;;;;;;;8.43;5.18;;;22.40;64.40;;;;;;4986539;28;20093;-65
2023/05/22 10:29:59;;;;;;;7.97;5.15;;;22.40;64.30;;;;;;4981648;28;20508;-62
2023/05/22 10:32:40;;;;;;;7.80;5.10;;;22.40;64.40;;;;;;4982098;28;20395;-61
2023/05/22 10:35:18;;;;;;;8.40;4.38;;;22.40;64.40;;;;;;4980717;28;20030;-63
2023/05/22 10:37:53;;;;;;;6.05;5.30;;;22.40;64.40;;;;;;4981220;28;20097;-63
2023/05/22 10:40:28;;;;;;;6.32;4.68;;;22.40;64.30;;;;;;4985859;28;20046;-64
2023/05/22 10:43:00;;;;;;;7.45;4.85;;;22.40;64.40;;;;;;4982600;28;20523;-65
2023/05/22 10:45:27;;;;;;;5.88;4.93;;;22.40;64.40;;;;;;4988076;28;20032;-65
2023/05/22 10:48:13;;;;;;;5.07;4.57;;;22.40;64.40;;;;;;4984409;28;20157;-63
2023/05/22 10:50:48;;;;;;;;;;;22.40;64.30;;;;;;4984537;28;20165;-65
2023/05/22 10:53:24;;;;;;;6.50;5.03;;;22.50;64.40;;;;;;4984362;28;20391;-65
2023/05/22 10:55:54;;;;;;;5.78;4.45;;;22.40;64.20;;;;;;4984124;28;20084;-65
2023/05/22 10:58:30;;;;;;;7.32;5.15;;;22.40;64.30;;;;;;4976443;28;20038;-65
2023/05/22 11:01:16;;;;;;;5.90;4.70;;;22.40;64.40;;;;;;4982182;28;20033;-65
2023/05/22 11:03:58;;;;;;;6.25;4.97;;;22.50;64.40;;;;;;4983992;28;20046;-65
2023/05/22 11:06:45;;;;;;;5.90;5.30;;;22.50;64.40;;;;;;4977935;28;20089;-64
2023/05/22 11:09:31;;;;;;;4.75;4.25;;;22.50;64.40;;;;;;4984402;28;20303;-65
2023/05/22 11:12:23;;;;;;;4.80;4.18;;;22.40;64.20;;;;;;4985383;28;20386;-64
2023/05/22 11:15:05;;;;;;;5.05;4.50;;;22.40;64.40;;;;;;4985059;28;20524;-65
2023/05/22 11:17:37;;;;;;;5.00;4.25;;;22.40;64.30;;;;;;4984286;28;20533;-65
2023/05/22 11:20:06;;;;;;;6.25;4.38;;;22.40;64.30;;;;;;4984166;28;20500;-65
2023/05/22 11:22:33;;;;;;;5.13;4.70;;;22.50;64.50;;;;;;4984106;28;20405;-64
2023/05/22 11:24:58;;;;;;;4.60;4.10;;;22.50;65.10;;;;;;4982359;28;20603;-64
2023/05/22 11:27:24;;;;;;;5.03;4.20;;;22.40;64.40;;;;;;4983355;28;20038;-64
2023/05/22 11:29:50;;;;;;;6.60;4.97;;;22.50;64.40;;;;;;4985001;28;20034;-65
2023/05/22 11:32:19;;;;;;;4.50;4.10;;;22.40;64.40;;;;;;4982339;28;20046;-65
2023/05/22 11:34:51;;;;;;;6.53;4.35;;;22.50;64.50;;;;;;4985210;28;20374;-64
2023/05/22 11:37:20;;;;;;;6.03;4.60;;;22.50;64.60;;;;;;4982237;28;20049;-65
2023/05/22 11:39:54;;;;;;;5.18;4.68;;;22.50;64.50;;;;;;4984737;28;20049;-65
2023/05/22 11:42:20;;;;;;;5.00;4.03;;;22.50;64.50;;;;;;4984643;28;20101;-66
2023/05/22 11:44:45;;;;;;;5.18;4.07;;;22.50;64.60;;;;;;4984908;28;20034;-64
2023/05/22 11:47:11;;;;;;;5.03;4.15;;;22.50;64.40;;;;;;4985031;28;20034;-64
2023/05/22 11:49:36;;;;;;;6.95;4.18;;;22.50;64.50;;;;;;4984197;28;20121;-65
2023/05/22 11:52:03;;;;;;;5.13;3.83;;;22.50;64.40;;;;;;4983015;28;20085;-64
2023/05/22 11:54:32;;;;;;;4.55;4.15;;;22.50;64.50;;;;;;4983891;28;20045;-65
2023/05/22 11:56:57;;;;;;;4.03;3.65;;;22.50;64.50;;;;;;4983379;28;20035;-65
2023/05/22 11:59:23;;;;;;;4.43;3.88;;;22.50;64.40;;;;;;4984895;28;20049;-65
2023/05/22 12:01:49;;;;;;;4.75;4.10;;;22.50;64.40;;;;;;4977746;28;20049;-64
2023/05/22 12:04:15;;;;;;;4.35;3.80;;;22.50;64.40;;;;;;4986043;28;20049;-65
2023/05/22 12:06:41;;;;;;;6.63;3.92;;;22.50;64.50;;;;;;4983716;28;20034;-64
2023/05/22 12:09:07;;;;;;;4.32;3.92;;;22.50;64.40;;;;;;4985146;28;20025;-64
2023/05/22 12:11:36;;;;;;;4.78;4.30;;;22.50;64.40;;;;;;4984062;28;20041;-65
2023/05/22 12:14:03;;;;;;;5.15;3.97;;;22.50;64.50;;;;;;4984816;28;20117;-65
2023/05/22 12:16:35;;;;;;;6.28;4.18;;;22.60;64.50;;;;;;4984449;28;20125;-66
2023/05/22 12:19:05;;;;;;;3.78;3.45;;;22.50;64.40;;;;;;4984236;28;20452;-65
2023/05/22 12:21:31;;;;;;;5.85;4.43;;;22.60;64.60;;;;;;4980107;28;20034;-64
2023/05/22 12:23:56;;;;;;;5.25;3.85;;;22.60;64.60;;;;;;4980578;28;20048;-62
2023/05/22 12:26:22;;;;;;;6.38;4.40;;;22.60;64.60;;;;;;4982353;28;20096;-65
2023/05/22 12:28:52;;;;;;;5.63;3.85;;;22.60;65.00;;;;;;4983721;28;20716;-65
2023/05/22 12:31:24;;;;;;;7.63;4.00;;;22.60;64.60;;;;;;4978875;28;20044;-64
2023/05/22 12:33:56;;;;;;;5.65;3.55;;;22.60;64.60;;;;;;4982792;28;20122;-63
2023/05/22 12:36:38;;;;;;;6.22;3.85;;;22.60;64.70;;;;;;4985126;28;20629;-65
2023/05/22 12:39:11;;;;;;;4.78;4.30;;;22.60;64.90;;;;;;4996860;28;20026;-65
2023/05/22 12:41:37;;;;;;;5.13;3.88;;;22.60;65.00;;;;;;4982740;28;20146;-65
2023/05/22 12:44:03;;;;;;;6.40;4.63;;;22.60;64.50;;;;;;4984239;28;20042;-66
2023/05/22 12:46:32;;;;;;;5.50;4.38;;;22.60;64.20;;;;;;4984634;28;20038;-64
2023/05/22 12:49:01;;;;;;;5.03;4.00;;;22.60;64.00;;;;;;4984007;28;20070;-65